createdAt,value
2017-08-05T00:00:17.293Z,954.6
2017-08-05T00:00:38.946Z,954.6
2017-08-05T00:01:00.513Z,954.6
2017-08-05T00:01:22.101Z,954.6
2017-08-05T00:01:43.745Z,954.6
2017-08-05T00:02:05.433Z,954.6
2017-08-05T00:02:27.069Z,954.6
2017-08-05T00:02:48.777Z,954.6
2017-08-05T00:03:10.403Z,954.6
2017-08-05T00:03:31.926Z,954.6
2017-08-05T00:03:53.625Z,954.6
2017-08-05T00:04:15.320Z,954.6
2017-08-05T00:04:36.987Z,954.6
2017-08-05T00:04:58.675Z,954.6
2017-08-05T00:05:20.325Z,954.6
2017-08-05T00:05:41.859Z,954.6
2017-08-05T00:06:03.339Z,954.6
2017-08-05T00:06:25.073Z,954.6
2017-08-05T00:06:46.736Z,954.6
2017-08-05T00:07:08.435Z,954.6
2017-08-05T00:07:30.063Z,954.6
2017-08-05T00:07:51.779Z,954.5
2017-08-05T00:08:13.452Z,954.6
2017-08-05T00:08:35.101Z,954.6
2017-08-05T00:08:56.683Z,954.5
2017-08-05T00:09:18.255Z,954.6
2017-08-05T00:09:39.903Z,954.6
2017-08-05T00:10:01.504Z,954.6
2017-08-05T00:10:23.125Z,954.6
2017-08-05T00:10:44.820Z,954.6
2017-08-05T00:11:06.426Z,954.6
2017-08-05T00:11:28.055Z,954.6
2017-08-05T00:11:49.626Z,954.6
2017-08-05T00:12:11.044Z,954.6
2017-08-05T00:12:32.720Z,954.6
2017-08-05T00:12:54.391Z,954.6
2017-08-05T00:13:15.964Z,954.6
2017-08-05T00:13:37.628Z,954.6
2017-08-05T00:13:59.258Z,954.6
2017-08-05T00:14:20.903Z,954.6
2017-08-05T00:14:42.578Z,954.6
2017-08-05T00:15:04.246Z,954.5
2017-08-05T00:15:25.897Z,954.6
2017-08-05T00:15:47.470Z,954.5
2017-08-05T00:16:09.109Z,954.5
2017-08-05T00:16:30.863Z,954.5
2017-08-05T00:16:52.426Z,954.5
2017-08-05T00:17:13.888Z,954.5
2017-08-05T00:17:35.395Z,954.5
2017-08-05T00:17:57.069Z,954.5
2017-08-05T00:18:18.777Z,954.5
2017-08-05T00:18:40.419Z,954.5
2017-08-05T00:19:02.076Z,954.5
2017-08-05T00:19:23.726Z,954.6
2017-08-05T00:19:45.499Z,954.5
2017-08-05T00:20:07.150Z,954.5
2017-08-05T00:20:28.873Z,954.5
2017-08-05T00:20:50.543Z,954.5
2017-08-05T00:21:12.202Z,954.5
2017-08-05T00:21:33.715Z,954.5
2017-08-05T00:21:55.378Z,954.5
2017-08-05T00:22:16.990Z,954.5
2017-08-05T00:22:38.709Z,954.6
2017-08-05T00:23:00.323Z,954.5
2017-08-05T00:23:21.929Z,954.5
2017-08-05T00:23:43.535Z,954.5
2017-08-05T00:24:05.124Z,954.5
2017-08-05T00:24:26.722Z,954.5
2017-08-05T00:24:48.359Z,954.6
2017-08-05T00:25:10.037Z,954.6
2017-08-05T00:25:31.657Z,954.5
2017-08-05T00:25:53.354Z,954.5
2017-08-05T00:26:14.925Z,954.5
2017-08-05T00:26:36.590Z,954.5
2017-08-05T00:26:58.216Z,954.5
2017-08-05T00:27:19.860Z,954.6
2017-08-05T00:27:41.540Z,954.5
2017-08-05T00:28:03.134Z,954.6
2017-08-05T00:28:24.722Z,954.5
2017-08-05T00:28:46.362Z,954.6
2017-08-05T00:29:07.954Z,954.6
2017-08-05T00:29:29.626Z,954.6
2017-08-05T00:29:51.291Z,954.6
2017-08-05T00:30:12.911Z,954.6
2017-08-05T00:30:34.502Z,954.6
2017-08-05T00:30:56.081Z,954.6
2017-08-05T00:31:17.661Z,954.6
2017-08-05T00:31:39.332Z,954.6
2017-08-05T00:32:01.022Z,954.6
2017-08-05T00:32:22.688Z,954.6
2017-08-05T00:32:44.296Z,954.6
2017-08-05T00:33:06.001Z,954.6
2017-08-05T00:33:27.647Z,954.6
2017-08-05T00:33:49.257Z,954.6
2017-08-05T00:34:10.964Z,954.6
2017-08-05T00:34:32.600Z,954.6
2017-08-05T00:34:54.230Z,954.6
2017-08-05T00:35:15.870Z,954.6
2017-08-05T00:35:37.550Z,954.6
2017-08-05T00:35:59.190Z,954.6
2017-08-05T00:36:20.866Z,954.6
2017-08-05T00:36:42.526Z,954.6
2017-08-05T00:37:04.217Z,954.6
2017-08-05T00:37:25.849Z,954.6
2017-08-05T00:37:47.558Z,954.6
2017-08-05T00:38:09.165Z,954.6
2017-08-05T00:38:30.806Z,954.6
2017-08-05T00:38:52.392Z,954.6
2017-08-05T00:39:13.959Z,954.5
2017-08-05T00:39:35.602Z,954.6
2017-08-05T00:39:57.283Z,954.6
2017-08-05T00:40:19.785Z,954.6
2017-08-05T00:40:41.406Z,954.5
2017-08-05T00:41:02.879Z,954.5
2017-08-05T00:41:24.463Z,954.5
2017-08-05T00:41:46.093Z,954.5
2017-08-05T00:42:07.642Z,954.5
2017-08-05T00:42:29.340Z,954.5
2017-08-05T00:42:50.960Z,954.5
2017-08-05T00:43:12.598Z,954.5
2017-08-05T00:43:34.308Z,954.5
2017-08-05T00:43:55.760Z,954.5
2017-08-05T00:44:17.170Z,954.6
2017-08-05T00:44:38.853Z,954.5
2017-08-05T00:45:00.550Z,954.5
2017-08-05T00:45:22.245Z,954.5
2017-08-05T00:45:43.853Z,954.5
2017-08-05T00:46:05.436Z,954.6
2017-08-05T00:46:27.127Z,954.6
2017-08-05T00:46:48.787Z,954.6
2017-08-05T00:47:10.449Z,954.6
2017-08-05T00:47:32.263Z,954.6
2017-08-05T00:47:53.879Z,954.6
2017-08-05T00:48:15.553Z,954.5
2017-08-05T00:48:37.040Z,954.6
2017-08-05T00:48:58.782Z,954.5
2017-08-05T00:49:20.442Z,954.6
2017-08-05T00:49:42.096Z,954.5
2017-08-05T00:50:03.776Z,954.6
2017-08-05T00:50:25.274Z,954.5
2017-08-05T00:50:46.784Z,954.5
2017-08-05T00:51:08.483Z,954.5
2017-08-05T00:51:30.194Z,954.5
2017-08-05T00:51:51.858Z,954.5
2017-08-05T00:52:13.513Z,954.5
2017-08-05T00:52:35.172Z,954.5
2017-08-05T00:52:56.873Z,954.5
2017-08-05T00:53:18.587Z,954.6
2017-08-05T00:53:40.268Z,954.5
2017-08-05T00:54:01.961Z,954.5
2017-08-05T00:54:23.627Z,954.5
2017-08-05T00:54:45.296Z,954.5
2017-08-05T00:55:06.888Z,954.5
2017-08-05T00:55:28.543Z,954.5
2017-08-05T00:55:50.233Z,954.5
2017-08-05T00:56:11.904Z,954.5
2017-08-05T00:56:33.656Z,954.5
2017-08-05T00:56:55.328Z,954.5
2017-08-05T00:57:17.042Z,954.5
2017-08-05T00:57:38.721Z,954.5
2017-08-05T00:58:00.448Z,954.5
2017-08-05T00:58:22.090Z,954.5
2017-08-05T00:58:43.666Z,954.5
2017-08-05T00:59:05.340Z,954.5
2017-08-05T00:59:26.989Z,954.5
2017-08-05T00:59:48.668Z,954.5
2017-08-05T01:00:10.369Z,954.5
2017-08-05T01:00:32.080Z,954.5
2017-08-05T01:00:53.760Z,954.5
2017-08-05T01:01:15.458Z,954.5
2017-08-05T01:01:37.182Z,954.5
2017-08-05T01:01:58.960Z,954.5
2017-08-05T01:02:20.637Z,954.5
2017-08-05T01:02:42.200Z,954.5
2017-08-05T01:03:03.818Z,954.5
2017-08-05T01:03:25.383Z,954.5
2017-08-05T01:03:46.947Z,954.5
2017-08-05T01:04:08.644Z,954.5
2017-08-05T01:04:30.314Z,954.5
2017-08-05T01:04:52.040Z,954.5
2017-08-05T01:05:13.797Z,954.5
2017-08-05T01:05:35.437Z,954.5
2017-08-05T01:05:57.102Z,954.5
2017-08-05T01:06:18.708Z,954.5
2017-08-05T01:06:40.289Z,954.5
2017-08-05T01:07:01.964Z,954.6
2017-08-05T01:07:23.586Z,954.5
2017-08-05T01:07:45.285Z,954.5
2017-08-05T01:08:06.992Z,954.5
2017-08-05T01:08:28.681Z,954.5
2017-08-05T01:08:50.435Z,954.5
2017-08-05T01:09:12.121Z,954.5
2017-08-05T01:09:33.813Z,954.5
2017-08-05T01:09:55.602Z,954.5
2017-08-05T01:10:17.292Z,954.5
2017-08-05T01:10:38.871Z,954.5
2017-08-05T01:11:00.337Z,954.5
2017-08-05T01:11:22.008Z,954.5
2017-08-05T01:11:43.642Z,954.5
2017-08-05T01:12:05.353Z,954.5
2017-08-05T01:12:27.065Z,954.5
2017-08-05T01:12:48.732Z,954.5
2017-08-05T01:13:10.597Z,954.5
2017-08-05T01:13:32.199Z,954.5
2017-08-05T01:13:53.914Z,954.5
2017-08-05T01:14:15.530Z,954.5
2017-08-05T01:14:37.194Z,954.5
2017-08-05T01:14:58.847Z,954.5
2017-08-05T01:15:20.508Z,954.5
2017-08-05T01:15:42.158Z,954.5
2017-08-05T01:16:03.905Z,954.5
2017-08-05T01:16:25.567Z,954.5
2017-08-05T01:16:47.306Z,954.5
2017-08-05T01:17:09.008Z,954.5
2017-08-05T01:17:30.584Z,954.5
2017-08-05T01:17:52.207Z,954.5
2017-08-05T01:18:13.683Z,954.5
2017-08-05T01:18:35.296Z,954.5
2017-08-05T01:18:56.910Z,954.5
2017-08-05T01:19:18.509Z,954.5
2017-08-05T01:19:40.148Z,954.5
2017-08-05T01:20:01.832Z,954.5
2017-08-05T01:20:23.579Z,954.5
2017-08-05T01:20:45.236Z,954.4
2017-08-05T01:21:06.931Z,954.5
2017-08-05T01:21:28.705Z,954.5
2017-08-05T01:21:50.369Z,954.5
2017-08-05T01:22:11.987Z,954.5
2017-08-05T01:22:33.626Z,954.5
2017-08-05T01:22:55.319Z,954.5
2017-08-05T01:23:17.044Z,954.5
2017-08-05T01:23:38.826Z,954.5
2017-08-05T01:24:00.445Z,954.5
2017-08-05T01:24:22.152Z,954.5
2017-08-05T01:24:43.821Z,954.5
2017-08-05T01:25:05.460Z,954.5
2017-08-05T01:25:27.061Z,954.5
2017-08-05T01:25:48.671Z,954.5
2017-08-05T01:26:10.335Z,954.4
2017-08-05T01:26:31.994Z,954.4
2017-08-05T01:26:53.534Z,954.4
2017-08-05T01:27:15.022Z,954.4
2017-08-05T01:27:36.713Z,954.4
2017-08-05T01:27:58.427Z,954.4
2017-08-05T01:28:20.021Z,954.5
2017-08-05T01:28:41.510Z,954.5
2017-08-05T01:29:03.156Z,954.4
2017-08-05T01:29:24.865Z,954.5
2017-08-05T01:29:46.542Z,954.5
2017-08-05T01:30:08.282Z,954.5
2017-08-05T01:30:29.819Z,954.5
2017-08-05T01:30:51.523Z,954.5
2017-08-05T01:31:13.251Z,954.5
2017-08-05T01:31:34.967Z,954.5
2017-08-05T01:31:56.444Z,954.5
2017-08-05T01:32:17.986Z,954.5
2017-08-05T01:32:39.589Z,954.5
2017-08-05T01:33:01.322Z,954.5
2017-08-05T01:33:22.930Z,954.5
2017-08-05T01:33:44.497Z,954.5
2017-08-05T01:34:06.084Z,954.5
2017-08-05T01:34:27.771Z,954.5
2017-08-05T01:34:49.434Z,954.5
2017-08-05T01:35:11.271Z,954.5
2017-08-05T01:35:32.909Z,954.5
2017-08-05T01:35:54.592Z,954.5
2017-08-05T01:36:16.287Z,954.5
2017-08-05T01:36:37.902Z,954.5
2017-08-05T01:36:59.594Z,954.5
2017-08-05T01:37:21.258Z,954.5
2017-08-05T01:37:42.920Z,954.5
2017-08-05T01:38:04.432Z,954.5
2017-08-05T01:38:26.118Z,954.5
2017-08-05T01:38:47.760Z,954.5
2017-08-05T01:39:09.241Z,954.5
2017-08-05T01:39:30.697Z,954.5
2017-08-05T01:39:52.350Z,954.5
2017-08-05T01:40:14.114Z,954.5
2017-08-05T01:40:35.916Z,954.5
2017-08-05T01:40:57.512Z,954.5
2017-08-05T01:41:19.101Z,954.5
2017-08-05T01:41:40.524Z,954.5
2017-08-05T01:42:02.164Z,954.5
2017-08-05T01:42:23.644Z,954.5
2017-08-05T01:42:45.383Z,954.4
2017-08-05T01:43:06.963Z,954.4
2017-08-05T01:43:28.609Z,954.4
2017-08-05T01:43:50.059Z,954.5
2017-08-05T01:44:11.486Z,954.4
2017-08-05T01:44:33.072Z,954.4
2017-08-05T01:44:54.764Z,954.4
2017-08-05T01:45:16.479Z,954.5
2017-08-05T01:45:38.187Z,954.4
2017-08-05T01:45:59.916Z,954.4
2017-08-05T01:46:21.625Z,954.4
2017-08-05T01:46:43.337Z,954.4
2017-08-05T01:47:05.044Z,954.4
2017-08-05T01:47:26.676Z,954.4
2017-08-05T01:47:48.389Z,954.4
2017-08-05T01:48:10.060Z,954.4
2017-08-05T01:48:31.738Z,954.4
2017-08-05T01:48:53.385Z,954.4
2017-08-05T01:49:14.882Z,954.5
2017-08-05T01:49:36.469Z,954.4
2017-08-05T01:49:58.078Z,954.4
2017-08-05T01:50:19.711Z,954.4
2017-08-05T01:50:41.383Z,954.4
2017-08-05T01:51:02.898Z,954.4
2017-08-05T01:51:24.314Z,954.4
2017-08-05T01:51:45.737Z,954.4
2017-08-05T01:52:07.441Z,954.4
2017-08-05T01:52:29.191Z,954.4
2017-08-05T01:52:50.858Z,954.4
2017-08-05T01:53:12.635Z,954.4
2017-08-05T01:53:34.392Z,954.4
2017-08-05T01:53:56.117Z,954.4
2017-08-05T01:54:17.786Z,954.4
2017-08-05T01:54:39.539Z,954.4
2017-08-05T01:55:01.176Z,954.4
2017-08-05T01:55:22.756Z,954.4
2017-08-05T01:55:44.432Z,954.4
2017-08-05T01:56:06.076Z,954.4
2017-08-05T01:56:27.699Z,954.4
2017-08-05T01:56:49.360Z,954.4
2017-08-05T01:57:11.048Z,954.4
2017-08-05T01:57:32.494Z,954.4
2017-08-05T01:57:53.944Z,954.4
2017-08-05T01:58:15.405Z,954.3
2017-08-05T01:58:37.106Z,954.4
2017-08-05T01:58:58.687Z,954.4
2017-08-05T01:59:20.373Z,954.4
2017-08-05T01:59:42.054Z,954.3
2017-08-05T02:00:03.687Z,954.4
2017-08-05T02:00:25.184Z,954.3
2017-08-05T02:00:46.700Z,954.3
2017-08-05T02:01:08.236Z,954.3
2017-08-05T02:01:29.898Z,954.3
2017-08-05T02:01:51.467Z,954.3
2017-08-05T02:02:12.997Z,954.3
2017-08-05T02:02:34.614Z,954.3
2017-08-05T02:02:56.308Z,954.3
2017-08-05T02:03:17.977Z,954.3
2017-08-05T02:03:39.702Z,954.3
2017-08-05T02:04:01.287Z,954.3
2017-08-05T02:04:22.914Z,954.3
2017-08-05T02:04:44.576Z,954.3
2017-08-05T02:05:06.370Z,954.3
2017-08-05T02:05:27.810Z,954.3
2017-08-05T02:05:49.247Z,954.3
2017-08-05T02:06:10.704Z,954.3
2017-08-05T02:06:32.292Z,954.3
2017-08-05T02:06:54.079Z,954.3
2017-08-05T02:07:15.770Z,954.3
2017-08-05T02:07:37.542Z,954.3
2017-08-05T02:07:59.115Z,954.3
2017-08-05T02:08:20.735Z,954.3
2017-08-05T02:08:42.454Z,954.3
2017-08-05T02:09:04.097Z,954.3
2017-08-05T02:09:25.661Z,954.3
2017-08-05T02:09:47.135Z,954.3
2017-08-05T02:10:08.746Z,954.3
2017-08-05T02:10:30.464Z,954.3
2017-08-05T02:10:52.015Z,954.3
2017-08-05T02:11:13.429Z,954.3
2017-08-05T02:11:34.919Z,954.2
2017-08-05T02:11:56.567Z,954.3
2017-08-05T02:12:18.217Z,954.3
2017-08-05T02:12:39.789Z,954.2
2017-08-05T02:13:01.432Z,954.3
2017-08-05T02:13:23.140Z,954.3
2017-08-05T02:13:44.924Z,954.2
2017-08-05T02:14:06.581Z,954.3
2017-08-05T02:14:28.252Z,954.3
2017-08-05T02:14:49.725Z,954.3
2017-08-05T02:15:11.185Z,954.3
2017-08-05T02:15:32.974Z,954.2
2017-08-05T02:15:54.734Z,954.2
2017-08-05T02:16:16.482Z,954.2
2017-08-05T02:16:37.960Z,954.3
2017-08-05T02:16:59.424Z,954.2
2017-08-05T02:17:21.150Z,954.2
2017-08-05T02:17:42.827Z,954.3
2017-08-05T02:18:04.426Z,954.2
2017-08-05T02:18:26.277Z,954.2
2017-08-05T02:18:47.928Z,954.2
2017-08-05T02:19:09.583Z,954.2
2017-08-05T02:19:31.254Z,954.2
2017-08-05T02:19:52.923Z,954.2
2017-08-05T02:20:14.625Z,954.2
2017-08-05T02:20:36.351Z,954.2
2017-08-05T02:20:57.977Z,954.2
2017-08-05T02:21:19.660Z,954.2
2017-08-05T02:21:41.375Z,954.2
2017-08-05T02:22:02.990Z,954.2
2017-08-05T02:22:24.702Z,954.2
2017-08-05T02:22:46.381Z,954.2
2017-08-05T02:23:08.066Z,954.3
2017-08-05T02:23:29.732Z,954.2
2017-08-05T02:23:51.407Z,954.2
2017-08-05T02:24:13.107Z,954.3
2017-08-05T02:24:34.809Z,954.2
2017-08-05T02:24:56.476Z,954.2
2017-08-05T02:25:18.170Z,954.2
2017-08-05T02:25:39.786Z,954.2
2017-08-05T02:26:01.528Z,954.2
2017-08-05T02:26:23.262Z,954.2
2017-08-05T02:26:44.878Z,954.2
2017-08-05T02:27:06.527Z,954.2
2017-08-05T02:27:28.058Z,954.2
2017-08-05T02:27:49.766Z,954.2
2017-08-05T02:28:11.439Z,954.2
2017-08-05T02:28:33.248Z,954.2
2017-08-05T02:28:54.977Z,954.2
2017-08-05T02:29:16.736Z,954.2
2017-08-05T02:29:38.475Z,954.2
2017-08-05T02:30:00.097Z,954.2
2017-08-05T02:30:21.758Z,954.2
2017-08-05T02:30:43.454Z,954.2
2017-08-05T02:31:05.207Z,954.2
2017-08-05T02:31:26.767Z,954.2
2017-08-05T02:31:48.305Z,954.2
2017-08-05T02:32:09.839Z,954.2
2017-08-05T02:32:31.553Z,954.2
2017-08-05T02:32:53.281Z,954.2
2017-08-05T02:33:15.033Z,954.2
2017-08-05T02:33:36.551Z,954.2
2017-08-05T02:33:58.186Z,954.2
2017-08-05T02:34:19.904Z,954.2
2017-08-05T02:34:41.554Z,954.2
2017-08-05T02:35:03.406Z,954.2
2017-08-05T02:35:25.053Z,954.2
2017-08-05T02:35:46.723Z,954.2
2017-08-05T02:36:08.541Z,954.2
2017-08-05T02:36:30.186Z,954.1
2017-08-05T02:36:51.562Z,954.2
2017-08-05T02:37:12.946Z,954.1
2017-08-05T02:37:34.330Z,954.2
2017-08-05T02:37:55.714Z,954.2
2017-08-05T02:38:17.095Z,954.2
2017-08-05T02:38:38.521Z,954.2
2017-08-05T02:38:59.902Z,954.2
2017-08-05T02:39:21.288Z,954.2
2017-08-05T02:39:42.671Z,954.2
2017-08-05T02:40:04.049Z,954.2
2017-08-05T02:40:25.428Z,954.2
2017-08-05T02:40:46.810Z,954.1
2017-08-05T02:41:08.190Z,954.2
2017-08-05T02:41:29.574Z,954.1
2017-08-05T02:41:50.953Z,954.1
2017-08-05T02:42:12.334Z,954.1
2017-08-05T02:42:33.715Z,954.1
2017-08-05T02:42:55.098Z,954.1
2017-08-05T02:43:16.476Z,954.1
2017-08-05T02:43:37.856Z,954.1
2017-08-05T02:43:59.242Z,954.1
2017-08-05T02:44:20.620Z,954.1
2017-08-05T02:44:42.005Z,954.1
2017-08-05T02:45:03.388Z,954.1
2017-08-05T02:45:24.764Z,954.1
2017-08-05T02:45:46.145Z,954.1
2017-08-05T02:46:07.529Z,954.1
2017-08-05T02:46:28.910Z,954.1
2017-08-05T02:46:50.291Z,954.1
2017-08-05T02:47:11.672Z,954.1
2017-08-05T02:47:33.053Z,954.1
2017-08-05T02:47:54.432Z,954.1
2017-08-05T02:48:15.815Z,954.1
2017-08-05T02:48:37.197Z,954.1
2017-08-05T02:48:59.087Z,954.1
2017-08-05T02:49:20.444Z,954.1
2017-08-05T02:49:41.824Z,954.0
2017-08-05T02:50:03.207Z,954.0
2017-08-05T02:50:24.587Z,954.1
2017-08-05T02:50:45.965Z,954.0
2017-08-05T02:51:07.343Z,954.1
2017-08-05T02:51:28.725Z,954.0
2017-08-05T02:51:50.108Z,954.0
2017-08-05T02:52:11.495Z,954.0
2017-08-05T02:52:32.870Z,954.0
2017-08-05T02:52:54.251Z,954.0
2017-08-05T02:53:15.633Z,954.0
2017-08-05T02:53:37.010Z,954.0
2017-08-05T02:53:58.391Z,954.0
2017-08-05T02:54:19.775Z,954.0
2017-08-05T02:54:41.157Z,954.0
2017-08-05T02:55:02.535Z,954.0
2017-08-05T02:55:23.915Z,954.0
2017-08-05T02:55:45.298Z,954.0
2017-08-05T02:56:06.681Z,954.0
2017-08-05T02:56:28.061Z,954.0
2017-08-05T02:56:49.442Z,954.0
2017-08-05T02:57:10.824Z,954.0
2017-08-05T02:57:32.222Z,954.0
2017-08-05T02:57:53.605Z,954.0
2017-08-05T02:58:14.987Z,954.0
2017-08-05T02:58:36.379Z,954.0
2017-08-05T02:58:57.779Z,954.0
2017-08-05T02:59:19.172Z,954.0
2017-08-05T02:59:40.555Z,954.0
2017-08-05T03:00:01.933Z,954.0
2017-08-05T03:00:23.318Z,954.0
2017-08-05T03:00:44.693Z,954.0
2017-08-05T03:01:06.204Z,954.0
2017-08-05T03:01:27.582Z,954.0
2017-08-05T03:01:48.967Z,954.0
2017-08-05T03:02:10.363Z,954.0
2017-08-05T03:02:31.741Z,954.0
2017-08-05T03:02:53.125Z,954.0
2017-08-05T03:03:14.507Z,954.0
2017-08-05T03:03:35.889Z,954.0
2017-08-05T03:03:57.270Z,954.0
2017-08-05T03:04:18.653Z,954.0
2017-08-05T03:04:40.049Z,954.0
2017-08-05T03:05:01.431Z,954.0
2017-08-05T03:05:22.826Z,954.0
2017-08-05T03:05:44.197Z,954.0
2017-08-05T03:06:05.576Z,954.0
2017-08-05T03:06:26.955Z,954.0
2017-08-05T03:06:48.336Z,954.0
2017-08-05T03:07:09.718Z,953.9
2017-08-05T03:07:31.100Z,953.9
2017-08-05T03:07:52.512Z,953.9
2017-08-05T03:08:13.895Z,953.9
2017-08-05T03:08:35.274Z,953.9
2017-08-05T03:08:56.656Z,953.9
2017-08-05T03:09:18.058Z,953.9
2017-08-05T03:09:39.428Z,953.9
2017-08-05T03:10:00.803Z,953.9
2017-08-05T03:10:22.187Z,953.9
2017-08-05T03:10:43.572Z,953.9
2017-08-05T03:11:04.955Z,953.9
2017-08-05T03:11:26.337Z,953.9
2017-08-05T03:11:47.720Z,953.9
2017-08-05T03:12:09.103Z,953.9
2017-08-05T03:12:30.483Z,953.9
2017-08-05T03:12:51.899Z,953.9
2017-08-05T03:13:13.275Z,953.8
2017-08-05T03:13:34.659Z,953.9
2017-08-05T03:13:56.072Z,953.9
2017-08-05T03:14:17.456Z,953.8
2017-08-05T03:14:38.868Z,953.8
2017-08-05T03:15:00.248Z,953.9
2017-08-05T03:15:21.628Z,953.9
2017-08-05T03:15:43.016Z,953.9
2017-08-05T03:16:04.400Z,953.9
2017-08-05T03:16:25.777Z,953.9
2017-08-05T03:16:47.160Z,953.9
2017-08-05T03:17:08.544Z,953.9
2017-08-05T03:17:29.925Z,953.8
2017-08-05T03:17:51.306Z,953.9
2017-08-05T03:18:12.686Z,953.9
2017-08-05T03:18:34.066Z,953.9
2017-08-05T03:18:55.451Z,953.9
2017-08-05T03:19:16.845Z,953.9
2017-08-05T03:19:38.230Z,953.8
2017-08-05T03:19:59.607Z,953.9
2017-08-05T03:20:20.987Z,953.9
2017-08-05T03:20:42.367Z,953.8
2017-08-05T03:21:03.749Z,953.8
2017-08-05T03:21:25.128Z,953.8
2017-08-05T03:21:46.574Z,953.8
2017-08-05T03:22:08.079Z,953.8
2017-08-05T03:22:29.468Z,953.8
2017-08-05T03:22:50.840Z,953.8
2017-08-05T03:23:12.220Z,953.8
2017-08-05T03:23:33.600Z,953.8
2017-08-05T03:23:54.984Z,953.8
2017-08-05T03:24:16.366Z,953.8
2017-08-05T03:24:37.747Z,953.8
2017-08-05T03:24:59.126Z,953.8
2017-08-05T03:25:20.510Z,953.8
2017-08-05T03:25:41.889Z,953.8
2017-08-05T03:26:03.270Z,953.8
2017-08-05T03:26:24.650Z,953.8
2017-08-05T03:26:46.031Z,953.8
2017-08-05T03:27:07.412Z,953.8
2017-08-05T03:27:28.809Z,953.8
2017-08-05T03:27:50.191Z,953.8
2017-08-05T03:28:11.570Z,953.8
2017-08-05T03:28:32.949Z,953.8
2017-08-05T03:28:54.365Z,953.8
2017-08-05T03:29:15.750Z,953.8
2017-08-05T03:29:37.133Z,953.8
2017-08-05T03:29:58.513Z,953.8
2017-08-05T03:30:19.891Z,953.8
2017-08-05T03:30:41.275Z,953.8
2017-08-05T03:31:02.653Z,953.8
2017-08-05T03:31:24.033Z,953.8
2017-08-05T03:31:45.414Z,953.8
2017-08-05T03:32:06.796Z,953.8
2017-08-05T03:32:28.176Z,953.8
2017-08-05T03:32:49.555Z,953.7
2017-08-05T03:33:10.933Z,953.8
2017-08-05T03:33:32.312Z,953.7
2017-08-05T03:33:53.693Z,953.8
2017-08-05T03:34:15.075Z,953.8
2017-08-05T03:34:36.460Z,953.8
2017-08-05T03:34:57.838Z,953.8
2017-08-05T03:35:19.222Z,953.8
2017-08-05T03:35:40.604Z,953.7
2017-08-05T03:36:01.985Z,953.8
2017-08-05T03:36:23.365Z,953.8
2017-08-05T03:36:44.745Z,953.7
2017-08-05T03:37:06.125Z,953.7
2017-08-05T03:37:27.510Z,953.7
2017-08-05T03:37:48.894Z,953.7
2017-08-05T03:38:10.275Z,953.7
2017-08-05T03:38:31.656Z,953.7
2017-08-05T03:38:53.041Z,953.7
2017-08-05T03:39:14.416Z,953.7
2017-08-05T03:39:35.806Z,953.6
2017-08-05T03:39:57.184Z,953.7
2017-08-05T03:40:18.561Z,953.6
2017-08-05T03:40:39.975Z,953.7
2017-08-05T03:41:01.355Z,953.7
2017-08-05T03:41:22.739Z,953.7
2017-08-05T03:41:44.152Z,953.6
2017-08-05T03:42:05.535Z,953.6
2017-08-05T03:42:26.946Z,953.6
2017-08-05T03:42:48.327Z,953.6
2017-08-05T03:43:09.749Z,953.6
2017-08-05T03:43:31.086Z,953.6
2017-08-05T03:43:52.468Z,953.6
2017-08-05T03:44:13.852Z,953.6
2017-08-05T03:44:35.235Z,953.6
2017-08-05T03:44:56.618Z,953.6
2017-08-05T03:45:17.993Z,953.6
2017-08-05T03:45:39.373Z,953.6
2017-08-05T03:46:00.752Z,953.6
2017-08-05T03:46:22.133Z,953.6
2017-08-05T03:46:43.515Z,953.6
2017-08-05T03:47:04.898Z,953.6
2017-08-05T03:47:26.277Z,953.6
2017-08-05T03:47:47.657Z,953.6
2017-08-05T03:48:09.038Z,953.6
2017-08-05T03:48:30.422Z,953.6
2017-08-05T03:48:51.803Z,953.6
2017-08-05T03:49:13.184Z,953.6
2017-08-05T03:49:34.698Z,953.6
2017-08-05T03:49:56.088Z,953.6
2017-08-05T03:50:17.467Z,953.6
2017-08-05T03:50:38.852Z,953.6
2017-08-05T03:51:00.232Z,953.7
2017-08-05T03:51:21.617Z,953.6
2017-08-05T03:51:42.998Z,953.6
2017-08-05T03:52:04.381Z,953.6
2017-08-05T03:52:25.762Z,953.6
2017-08-05T03:52:47.177Z,953.6
2017-08-05T03:53:08.558Z,953.6
2017-08-05T03:53:29.943Z,953.6
2017-08-05T03:53:51.329Z,953.6
2017-08-05T03:54:12.709Z,953.6
2017-08-05T03:54:34.091Z,953.6
2017-08-05T03:54:55.472Z,953.6
2017-08-05T03:55:16.855Z,953.6
2017-08-05T03:55:38.235Z,953.6
2017-08-05T03:55:59.621Z,953.6
2017-08-05T03:56:21.010Z,953.6
2017-08-05T03:56:42.395Z,953.6
2017-08-05T03:57:03.778Z,953.6
2017-08-05T03:57:25.164Z,953.7
2017-08-05T03:57:46.539Z,953.7
2017-08-05T03:58:07.925Z,953.6
2017-08-05T03:58:29.304Z,953.6
2017-08-05T03:58:50.687Z,953.6
2017-08-05T03:59:12.068Z,953.6
2017-08-05T03:59:33.452Z,953.6
2017-08-05T03:59:54.832Z,953.6
2017-08-05T04:00:16.212Z,953.6
2017-08-05T04:00:37.946Z,953.6
2017-08-05T04:00:59.331Z,953.6
2017-08-05T04:01:20.712Z,953.6
2017-08-05T04:01:42.093Z,953.6
2017-08-05T04:02:03.486Z,953.6
2017-08-05T04:02:24.863Z,953.6
2017-08-05T04:02:46.263Z,953.6
2017-08-05T04:03:07.650Z,953.6
2017-08-05T04:03:29.065Z,953.6
2017-08-05T04:03:50.449Z,953.6
2017-08-05T04:04:11.830Z,953.6
2017-08-05T04:04:33.216Z,953.6
2017-08-05T04:04:54.596Z,953.6
2017-08-05T04:05:15.981Z,953.6
2017-08-05T04:05:37.390Z,953.6
2017-08-05T04:05:58.775Z,953.5
2017-08-05T04:06:20.157Z,953.6
2017-08-05T04:06:41.539Z,953.5
2017-08-05T04:07:02.922Z,953.6
2017-08-05T04:07:24.303Z,953.5
2017-08-05T04:07:45.683Z,953.6
2017-08-05T04:08:07.065Z,953.5
2017-08-05T04:08:28.481Z,953.5
2017-08-05T04:08:49.865Z,953.6
2017-08-05T04:09:11.249Z,953.5
2017-08-05T04:09:32.632Z,953.5
2017-08-05T04:09:54.014Z,953.6
2017-08-05T04:10:15.395Z,953.6
2017-08-05T04:10:36.788Z,953.5
2017-08-05T04:10:58.160Z,953.5
2017-08-05T04:11:19.576Z,953.5
2017-08-05T04:11:40.959Z,953.5
2017-08-05T04:12:02.346Z,953.5
2017-08-05T04:12:23.728Z,953.5
2017-08-05T04:12:45.110Z,953.6
2017-08-05T04:13:06.498Z,953.5
2017-08-05T04:13:27.873Z,953.5
2017-08-05T04:13:49.258Z,953.5
2017-08-05T04:14:10.642Z,953.5
2017-08-05T04:14:32.028Z,953.6
2017-08-05T04:14:53.430Z,953.5
2017-08-05T04:15:14.789Z,953.5
2017-08-05T04:15:36.177Z,953.5
2017-08-05T04:15:57.555Z,953.5
2017-08-05T04:16:18.940Z,953.5
2017-08-05T04:16:40.325Z,953.5
2017-08-05T04:17:01.710Z,953.5
2017-08-05T04:17:23.090Z,953.5
2017-08-05T04:17:44.473Z,953.5
2017-08-05T04:18:05.855Z,953.5
2017-08-05T04:18:27.237Z,953.5
2017-08-05T04:18:48.662Z,953.5
2017-08-05T04:19:10.049Z,953.5
2017-08-05T04:19:31.433Z,953.6
2017-08-05T04:19:52.854Z,953.6
2017-08-05T04:20:15.123Z,953.5
2017-08-05T04:20:36.467Z,953.5
2017-08-05T04:20:57.850Z,953.6
2017-08-05T04:21:19.270Z,953.6
2017-08-05T04:21:40.656Z,953.6
2017-08-05T04:22:02.050Z,953.6
2017-08-05T04:22:23.432Z,953.6
2017-08-05T04:22:44.812Z,953.6
2017-08-05T04:23:06.198Z,953.6
2017-08-05T04:23:27.580Z,953.6
2017-08-05T04:23:48.970Z,953.6
2017-08-05T04:24:10.354Z,953.6
2017-08-05T04:24:31.739Z,953.6
2017-08-05T04:24:53.122Z,953.6
2017-08-05T04:25:14.505Z,953.6
2017-08-05T04:25:35.890Z,953.6
2017-08-05T04:25:57.275Z,953.6
2017-08-05T04:26:18.665Z,953.6
2017-08-05T04:26:40.045Z,953.6
2017-08-05T04:27:01.430Z,953.6
2017-08-05T04:27:22.812Z,953.6
2017-08-05T04:27:44.197Z,953.6
2017-08-05T04:28:05.580Z,953.7
2017-08-05T04:28:26.963Z,953.7
2017-08-05T04:28:48.350Z,953.6
2017-08-05T04:29:09.735Z,953.7
2017-08-05T04:29:31.121Z,953.7
2017-08-05T04:29:52.505Z,953.7
2017-08-05T04:30:13.892Z,953.7
2017-08-05T04:30:35.275Z,953.7
2017-08-05T04:30:56.657Z,953.7
2017-08-05T04:31:18.041Z,953.6
2017-08-05T04:31:39.427Z,953.7
2017-08-05T04:32:00.810Z,953.7
2017-08-05T04:32:22.193Z,953.7
2017-08-05T04:32:43.573Z,953.7
2017-08-05T04:33:04.959Z,953.7
2017-08-05T04:33:26.342Z,953.6
2017-08-05T04:33:47.731Z,953.7
2017-08-05T04:34:09.111Z,953.7
2017-08-05T04:34:30.499Z,953.7
2017-08-05T04:34:51.883Z,953.7
2017-08-05T04:35:13.265Z,953.7
2017-08-05T04:35:34.651Z,953.7
2017-08-05T04:35:56.034Z,953.7
2017-08-05T04:36:17.451Z,953.7
2017-08-05T04:36:38.838Z,953.6
2017-08-05T04:37:00.223Z,953.7
2017-08-05T04:37:21.605Z,953.7